sensor_id;sensor_type;location;lat;lon;timestamp;temperature;humidity
27114;DHT22;14648;49.730;8.614;2022-12-07T00:01:13;5.40;67.40
27114;DHT22;14648;49.730;8.614;2022-12-07T00:03:41;5.40;67.50
27114;DHT22;14648;49.730;8.614;2022-12-07T00:06:11;5.40;67.50
27114;DHT22;14648;49.730;8.614;2022-12-07T00:08:38;5.40;67.40
27114;DHT22;14648;49.730;8.614;2022-12-07T00:11:12;5.40;67.50
27114;DHT22;14648;49.730;8.614;2022-12-07T00:13:40;5.40;67.50
27114;DHT22;14648;49.730;8.614;2022-12-07T00:16:12;5.40;67.40
27114;DHT22;14648;49.730;8.614;2022-12-07T00:18:41;5.40;67.50
27114;DHT22;14648;49.730;8.614;2022-12-07T00:21:11;5.40;67.40
27114;DHT22;14648;49.730;8.614;2022-12-07T00:23:39;5.40;67.50
27114;DHT22;14648;49.730;8.614;2022-12-07T00:26:11;5.40;67.50
27114;DHT22;14648;49.730;8.614;2022-12-07T00:28:39;5.40;67.40
27114;DHT22;14648;49.730;8.614;2022-12-07T00:31:10;5.40;67.50
27114;DHT22;14648;49.730;8.614;2022-12-07T00:33:38;5.40;67.50
27114;DHT22;14648;49.730;8.614;2022-12-07T00:36:11;5.40;67.50
27114;DHT22;14648;49.730;8.614;2022-12-07T00:38:39;5.50;67.60
27114;DHT22;14648;49.730;8.614;2022-12-07T00:41:08;5.40;67.40
27114;DHT22;14648;49.730;8.614;2022-12-07T00:43:35;5.40;67.40
27114;DHT22;14648;49.730;8.614;2022-12-07T00:46:00;5.40;67.50
27114;DHT22;14648;49.730;8.614;2022-12-07T00:48:26;5.40;67.50
27114;DHT22;14648;49.730;8.614;2022-12-07T00:50:52;5.40;67.50
27114;DHT22;14648;49.730;8.614;2022-12-07T00:53:18;5.50;67.60
27114;DHT22;14648;49.730;8.614;2022-12-07T00:55:45;5.50;67.60
27114;DHT22;14648;49.730;8.614;2022-12-07T00:58:11;5.50;67.60
27114;DHT22;14648;49.730;8.614;2022-12-07T01:00:38;5.50;67.60
27114;DHT22;14648;49.730;8.614;2022-12-07T01:03:06;5.50;67.60
27114;DHT22;14648;49.730;8.614;2022-12-07T01:05:33;5.40;67.60
27114;DHT22;14648;49.730;8.614;2022-12-07T01:07:59;5.40;67.50
27114;DHT22;14648;49.730;8.614;2022-12-07T01:10:24;5.50;67.70
27114;DHT22;14648;49.730;8.614;2022-12-07T01:12:51;5.40;67.50
27114;DHT22;14648;49.730;8.614;2022-12-07T01:15:16;5.40;67.50
27114;DHT22;14648;49.730;8.614;2022-12-07T01:17:42;5.40;67.60
27114;DHT22;14648;49.730;8.614;2022-12-07T01:20:08;5.40;67.50
27114;DHT22;14648;49.730;8.614;2022-12-07T01:22:39;5.40;67.60
27114;DHT22;14648;49.730;8.614;2022-12-07T01:25:07;5.40;67.60
27114;DHT22;14648;49.730;8.614;2022-12-07T01:27:34;5.40;68.30
27114;DHT22;14648;49.730;8.614;2022-12-07T01:30:00;5.40;67.50
27114;DHT22;14648;49.730;8.614;2022-12-07T01:32:26;5.30;67.60
27114;DHT22;14648;49.730;8.614;2022-12-07T01:34:52;5.30;67.70
27114;DHT22;14648;49.730;8.614;2022-12-07T01:37:18;5.30;67.60
27114;DHT22;14648;49.730;8.614;2022-12-07T01:39:44;5.30;67.60
27114;DHT22;14648;49.730;8.614;2022-12-07T01:42:10;5.30;67.50
27114;DHT22;14648;49.730;8.614;2022-12-07T01:48:04;5.30;67.60
27114;DHT22;14648;49.730;8.614;2022-12-07T01:50:31;5.30;67.60
27114;DHT22;14648;49.730;8.614;2022-12-07T01:53:00;5.30;67.50
27114;DHT22;14648;49.730;8.614;2022-12-07T01:55:27;5.30;67.50
27114;DHT22;14648;49.730;8.614;2022-12-07T01:57:54;5.30;67.50
27114;DHT22;14648;49.730;8.614;2022-12-07T02:00:20;5.30;67.50
27114;DHT22;14648;49.730;8.614;2022-12-07T02:02:53;5.30;67.50
27114;DHT22;14648;49.730;8.614;2022-12-07T02:05:23;5.30;67.50
27114;DHT22;14648;49.730;8.614;2022-12-07T02:07:51;5.20;67.40
27114;DHT22;14648;49.730;8.614;2022-12-07T02:10:21;5.20;67.40
27114;DHT22;14648;49.730;8.614;2022-12-07T02:13:05;5.20;67.40
27114;DHT22;14648;49.730;8.614;2022-12-07T02:18:38;5.20;67.40
27114;DHT22;14648;49.730;8.614;2022-12-07T02:30:08;5.20;67.20
27114;DHT22;14648;49.730;8.614;2022-12-07T02:32:48;5.20;67.20
27114;DHT22;14648;49.730;8.614;2022-12-07T02:35:22;5.20;67.10
27114;DHT22;14648;49.730;8.614;2022-12-07T02:38:23;5.20;67.10
27114;DHT22;14648;49.730;8.614;2022-12-07T02:41:07;5.20;67.10
27114;DHT22;14648;49.730;8.614;2022-12-07T02:43:52;5.20;67.10
27114;DHT22;14648;49.730;8.614;2022-12-07T02:46:38;5.20;67.10
27114;DHT22;14648;49.730;8.614;2022-12-07T02:49:07;5.20;67.10
27114;DHT22;14648;49.730;8.614;2022-12-07T02:51:34;5.10;67.10
27114;DHT22;14648;49.730;8.614;2022-12-07T02:54:13;5.10;67.20
27114;DHT22;14648;49.730;8.614;2022-12-07T02:56:48;5.20;67.20
27114;DHT22;14648;49.730;8.614;2022-12-07T02:59:35;5.20;67.10
27114;DHT22;14648;49.730;8.614;2022-12-07T03:02:35;5.20;67.10
27114;DHT22;14648;49.730;8.614;2022-12-07T03:08:47;5.10;67.00
27114;DHT22;14648;49.730;8.614;2022-12-07T03:11:34;5.20;67.10
27114;DHT22;14648;49.730;8.614;2022-12-07T03:14:21;5.10;67.00
27114;DHT22;14648;49.730;8.614;2022-12-07T03:16:56;5.10;67.00
27114;DHT22;14648;49.730;8.614;2022-12-07T03:19:32;5.10;67.10
27114;DHT22;14648;49.730;8.614;2022-12-07T03:22:05;5.10;67.00
27114;DHT22;14648;49.730;8.614;2022-12-07T03:24:39;5.10;67.10
27114;DHT22;14648;49.730;8.614;2022-12-07T03:27:13;5.10;67.20
27114;DHT22;14648;49.730;8.614;2022-12-07T03:29:51;5.10;67.20
27114;DHT22;14648;49.730;8.614;2022-12-07T03:32:36;5.20;67.30
27114;DHT22;14648;49.730;8.614;2022-12-07T03:35:17;5.20;67.40
27114;DHT22;14648;49.730;8.614;2022-12-07T03:37:52;5.20;67.30
27114;DHT22;14648;49.730;8.614;2022-12-07T03:40:28;5.20;67.30
27114;DHT22;14648;49.730;8.614;2022-12-07T03:42:59;5.10;67.40
27114;DHT22;14648;49.730;8.614;2022-12-07T03:45:36;5.10;67.40
27114;DHT22;14648;49.730;8.614;2022-12-07T03:48:32;5.10;68.30
27114;DHT22;14648;49.730;8.614;2022-12-07T03:51:14;5.10;67.50
27114;DHT22;14648;49.730;8.614;2022-12-07T03:54:05;5.10;67.50
27114;DHT22;14648;49.730;8.614;2022-12-07T03:56:36;5.20;67.40
27114;DHT22;14648;49.730;8.614;2022-12-07T03:59:02;5.10;67.50
27114;DHT22;14648;49.730;8.614;2022-12-07T04:01:28;5.10;67.50
27114;DHT22;14648;49.730;8.614;2022-12-07T04:03:53;5.10;67.60
27114;DHT22;14648;49.730;8.614;2022-12-07T04:06:19;5.10;67.50
27114;DHT22;14648;49.730;8.614;2022-12-07T04:08:44;5.10;67.50
27114;DHT22;14648;49.730;8.614;2022-12-07T04:11:10;5.10;67.60
27114;DHT22;14648;49.730;8.614;2022-12-07T04:13:36;5.00;67.60
27114;DHT22;14648;49.730;8.614;2022-12-07T04:16:21;5.00;67.60
27114;DHT22;14648;49.730;8.614;2022-12-07T04:18:47;5.00;67.70
27114;DHT22;14648;49.730;8.614;2022-12-07T04:21:13;5.00;67.70
27114;DHT22;14648;49.730;8.614;2022-12-07T04:23:38;5.00;67.70
27114;DHT22;14648;49.730;8.614;2022-12-07T04:26:04;5.00;67.80
27114;DHT22;14648;49.730;8.614;2022-12-07T04:28:30;5.00;67.90
27114;DHT22;14648;49.730;8.614;2022-12-07T04:30:55;5.00;67.90
27114;DHT22;14648;49.730;8.614;2022-12-07T04:33:21;5.00;67.90
27114;DHT22;14648;49.730;8.614;2022-12-07T04:35:47;5.00;68.00
27114;DHT22;14648;49.730;8.614;2022-12-07T04:38:12;4.90;68.00
27114;DHT22;14648;49.730;8.614;2022-12-07T04:40:38;4.90;68.00
27114;DHT22;14648;49.730;8.614;2022-12-07T04:43:03;4.90;68.00
27114;DHT22;14648;49.730;8.614;2022-12-07T04:45:30;4.80;68.00
27114;DHT22;14648;49.730;8.614;2022-12-07T04:47:55;4.80;68.20
27114;DHT22;14648;49.730;8.614;2022-12-07T04:50:21;4.80;68.30
27114;DHT22;14648;49.730;8.614;2022-12-07T04:52:46;4.80;68.20
27114;DHT22;14648;49.730;8.614;2022-12-07T04:55:12;4.90;68.40
27114;DHT22;14648;49.730;8.614;2022-12-07T04:57:38;4.90;68.30
27114;DHT22;14648;49.730;8.614;2022-12-07T05:00:04;4.90;68.30
27114;DHT22;14648;49.730;8.614;2022-12-07T05:02:30;4.90;68.10
27114;DHT22;14648;49.730;8.614;2022-12-07T05:04:56;4.90;68.20
27114;DHT22;14648;49.730;8.614;2022-12-07T05:07:21;4.90;68.30
27114;DHT22;14648;49.730;8.614;2022-12-07T05:09:47;4.90;68.30
27114;DHT22;14648;49.730;8.614;2022-12-07T05:12:12;4.90;68.30
27114;DHT22;14648;49.730;8.614;2022-12-07T05:14:40;4.90;68.40
27114;DHT22;14648;49.730;8.614;2022-12-07T05:17:06;4.80;68.40
27114;DHT22;14648;49.730;8.614;2022-12-07T05:19:31;4.80;68.40
27114;DHT22;14648;49.730;8.614;2022-12-07T05:21:57;4.80;68.40
27114;DHT22;14648;49.730;8.614;2022-12-07T05:24:23;4.80;68.40
27114;DHT22;14648;49.730;8.614;2022-12-07T05:26:48;4.80;68.50
27114;DHT22;14648;49.730;8.614;2022-12-07T05:29:16;4.80;68.50
27114;DHT22;14648;49.730;8.614;2022-12-07T05:31:43;4.90;68.60
27114;DHT22;14648;49.730;8.614;2022-12-07T05:34:09;4.80;68.50
27114;DHT22;14648;49.730;8.614;2022-12-07T05:36:35;4.80;68.60
27114;DHT22;14648;49.730;8.614;2022-12-07T05:39:01;4.80;68.60
27114;DHT22;14648;49.730;8.614;2022-12-07T05:41:26;4.80;68.70
27114;DHT22;14648;49.730;8.614;2022-12-07T05:44:12;4.80;68.80
27114;DHT22;14648;49.730;8.614;2022-12-07T05:46:38;4.80;68.70
27114;DHT22;14648;49.730;8.614;2022-12-07T05:49:03;4.80;68.60
27114;DHT22;14648;49.730;8.614;2022-12-07T05:51:29;4.80;68.70
27114;DHT22;14648;49.730;8.614;2022-12-07T05:53:55;4.80;68.70
27114;DHT22;14648;49.730;8.614;2022-12-07T05:56:21;4.80;68.80
27114;DHT22;14648;49.730;8.614;2022-12-07T05:58:46;4.90;68.80
27114;DHT22;14648;49.730;8.614;2022-12-07T06:01:31;4.90;68.80
27114;DHT22;14648;49.730;8.614;2022-12-07T06:03:57;4.90;68.90
27114;DHT22;14648;49.730;8.614;2022-12-07T06:06:22;4.90;68.90
27114;DHT22;14648;49.730;8.614;2022-12-07T06:08:48;5.00;68.80
27114;DHT22;14648;49.730;8.614;2022-12-07T06:11:14;5.00;68.70
27114;DHT22;14648;49.730;8.614;2022-12-07T06:13:58;5.00;68.70
27114;DHT22;14648;49.730;8.614;2022-12-07T06:16:23;5.00;68.70
27114;DHT22;14648;49.730;8.614;2022-12-07T06:18:49;5.00;68.70
27114;DHT22;14648;49.730;8.614;2022-12-07T06:21:14;5.00;68.80
27114;DHT22;14648;49.730;8.614;2022-12-07T06:23:40;4.90;68.80
27114;DHT22;14648;49.730;8.614;2022-12-07T06:26:06;4.90;68.90
27114;DHT22;14648;49.730;8.614;2022-12-07T06:28:32;4.90;69.00
27114;DHT22;14648;49.730;8.614;2022-12-07T06:31:00;4.90;68.90
27114;DHT22;14648;49.730;8.614;2022-12-07T06:33:27;4.90;69.00
27114;DHT22;14648;49.730;8.614;2022-12-07T06:35:53;4.90;69.00
27114;DHT22;14648;49.730;8.614;2022-12-07T06:38:19;4.90;69.00
27114;DHT22;14648;49.730;8.614;2022-12-07T06:40:46;4.90;69.00
27114;DHT22;14648;49.730;8.614;2022-12-07T06:43:11;4.90;69.00
27114;DHT22;14648;49.730;8.614;2022-12-07T06:45:37;4.90;69.00
27114;DHT22;14648;49.730;8.614;2022-12-07T06:48:03;4.90;69.00
27114;DHT22;14648;49.730;8.614;2022-12-07T06:50:28;4.90;68.90
27114;DHT22;14648;49.730;8.614;2022-12-07T06:52:54;4.90;68.90
27114;DHT22;14648;49.730;8.614;2022-12-07T06:55:20;4.90;69.00
27114;DHT22;14648;49.730;8.614;2022-12-07T06:57:45;4.90;69.00
27114;DHT22;14648;49.730;8.614;2022-12-07T07:00:12;4.90;69.00
27114;DHT22;14648;49.730;8.614;2022-12-07T07:02:38;4.90;69.00
27114;DHT22;14648;49.730;8.614;2022-12-07T07:05:04;5.00;68.90
27114;DHT22;14648;49.730;8.614;2022-12-07T07:07:29;5.00;68.90
27114;DHT22;14648;49.730;8.614;2022-12-07T07:09:55;5.00;68.90
27114;DHT22;14648;49.730;8.614;2022-12-07T07:12:21;5.00;69.00
27114;DHT22;14648;49.730;8.614;2022-12-07T07:14:46;4.90;69.00
27114;DHT22;14648;49.730;8.614;2022-12-07T07:17:12;5.00;69.00
27114;DHT22;14648;49.730;8.614;2022-12-07T07:19:38;4.90;69.00
27114;DHT22;14648;49.730;8.614;2022-12-07T07:22:04;4.90;69.00
27114;DHT22;14648;49.730;8.614;2022-12-07T07:24:30;5.00;68.90
27114;DHT22;14648;49.730;8.614;2022-12-07T07:26:55;5.00;68.90
27114;DHT22;14648;49.730;8.614;2022-12-07T07:29:21;5.00;68.90
27114;DHT22;14648;49.730;8.614;2022-12-07T07:31:47;5.00;68.90
27114;DHT22;14648;49.730;8.614;2022-12-07T07:34:13;5.00;68.90
27114;DHT22;14648;49.730;8.614;2022-12-07T07:36:39;5.00;68.90
27114;DHT22;14648;49.730;8.614;2022-12-07T07:39:05;5.00;68.90
27114;DHT22;14648;49.730;8.614;2022-12-07T07:41:31;5.00;68.90
27114;DHT22;14648;49.730;8.614;2022-12-07T07:43:57;5.00;68.90
27114;DHT22;14648;49.730;8.614;2022-12-07T07:46:23;5.10;69.00
27114;DHT22;14648;49.730;8.614;2022-12-07T07:48:48;5.00;68.90
27114;DHT22;14648;49.730;8.614;2022-12-07T07:51:14;5.00;68.90
27114;DHT22;14648;49.730;8.614;2022-12-07T07:53:40;5.00;69.00
27114;DHT22;14648;49.730;8.614;2022-12-07T07:56:06;5.10;69.20
27114;DHT22;14648;49.730;8.614;2022-12-07T07:58:32;5.10;69.20
27114;DHT22;14648;49.730;8.614;2022-12-07T08:01:03;5.20;69.10
27114;DHT22;14648;49.730;8.614;2022-12-07T08:03:33;5.10;69.10
27114;DHT22;14648;49.730;8.614;2022-12-07T08:05:59;5.10;69.10
27114;DHT22;14648;49.730;8.614;2022-12-07T08:08:24;5.10;69.10
27114;DHT22;14648;49.730;8.614;2022-12-07T08:10:50;5.10;69.20
27114;DHT22;14648;49.730;8.614;2022-12-07T08:13:16;5.10;69.20
27114;DHT22;14648;49.730;8.614;2022-12-07T08:15:44;5.10;69.20
27114;DHT22;14648;49.730;8.614;2022-12-07T08:18:13;5.10;69.20
27114;DHT22;14648;49.730;8.614;2022-12-07T08:20:40;5.10;69.20
27114;DHT22;14648;49.730;8.614;2022-12-07T08:23:07;5.10;69.30
27114;DHT22;14648;49.730;8.614;2022-12-07T08:25:34;5.20;69.30
27114;DHT22;14648;49.730;8.614;2022-12-07T08:28:01;5.20;69.30
27114;DHT22;14648;49.730;8.614;2022-12-07T08:30:28;5.20;69.30
27114;DHT22;14648;49.730;8.614;2022-12-07T08:32:55;5.20;69.20
27114;DHT22;14648;49.730;8.614;2022-12-07T08:35:21;5.20;69.20
27114;DHT22;14648;49.730;8.614;2022-12-07T08:37:47;5.20;69.30
27114;DHT22;14648;49.730;8.614;2022-12-07T08:40:13;5.20;69.30
27114;DHT22;14648;49.730;8.614;2022-12-07T08:42:47;5.20;69.20
27114;DHT22;14648;49.730;8.614;2022-12-07T08:45:16;5.30;69.30
27114;DHT22;14648;49.730;8.614;2022-12-07T08:50:28;5.30;69.30
27114;DHT22;14648;49.730;8.614;2022-12-07T08:52:57;5.30;69.20
27114;DHT22;14648;49.730;8.614;2022-12-07T08:55:23;5.30;69.30
27114;DHT22;14648;49.730;8.614;2022-12-07T08:57:49;5.30;69.30
27114;DHT22;14648;49.730;8.614;2022-12-07T09:00:15;5.30;69.30
27114;DHT22;14648;49.730;8.614;2022-12-07T09:02:43;5.30;69.20
27114;DHT22;14648;49.730;8.614;2022-12-07T09:05:10;5.30;69.20
27114;DHT22;14648;49.730;8.614;2022-12-07T09:07:36;5.30;69.30
27114;DHT22;14648;49.730;8.614;2022-12-07T09:10:04;5.30;69.30
27114;DHT22;14648;49.730;8.614;2022-12-07T09:12:31;5.40;69.30
27114;DHT22;14648;49.730;8.614;2022-12-07T09:14:57;5.40;69.30
27114;DHT22;14648;49.730;8.614;2022-12-07T09:17:22;5.50;69.40
27114;DHT22;14648;49.730;8.614;2022-12-07T09:19:48;5.50;69.40
27114;DHT22;14648;49.730;8.614;2022-12-07T09:22:14;5.50;69.30
27114;DHT22;14648;49.730;8.614;2022-12-07T09:24:39;5.50;69.30
27114;DHT22;14648;49.730;8.614;2022-12-07T09:27:05;5.50;69.20
27114;DHT22;14648;49.730;8.614;2022-12-07T09:29:31;5.60;69.20
27114;DHT22;14648;49.730;8.614;2022-12-07T09:31:56;5.60;69.30
27114;DHT22;14648;49.730;8.614;2022-12-07T09:34:22;5.60;69.30
27114;DHT22;14648;49.730;8.614;2022-12-07T09:36:48;5.60;69.20
27114;DHT22;14648;49.730;8.614;2022-12-07T09:39:14;5.70;69.30
27114;DHT22;14648;49.730;8.614;2022-12-07T09:41:41;5.70;69.30
27114;DHT22;14648;49.730;8.614;2022-12-07T09:44:14;5.70;69.30
27114;DHT22;14648;49.730;8.614;2022-12-07T09:46:46;5.80;69.30
27114;DHT22;14648;49.730;8.614;2022-12-07T09:49:16;5.80;69.30
27114;DHT22;14648;49.730;8.614;2022-12-07T09:51:44;5.90;69.40
27114;DHT22;14648;49.730;8.614;2022-12-07T09:54:15;5.90;69.40
27114;DHT22;14648;49.730;8.614;2022-12-07T09:56:42;6.00;69.30
27114;DHT22;14648;49.730;8.614;2022-12-07T09:59:13;6.00;69.20
27114;DHT22;14648;49.730;8.614;2022-12-07T10:01:46;6.00;69.20
27114;DHT22;14648;49.730;8.614;2022-12-07T10:04:17;6.10;69.30
27114;DHT22;14648;49.730;8.614;2022-12-07T10:06:44;6.10;69.30
27114;DHT22;14648;49.730;8.614;2022-12-07T10:09:16;6.10;69.30
27114;DHT22;14648;49.730;8.614;2022-12-07T10:12:08;6.10;69.20
27114;DHT22;14648;49.730;8.614;2022-12-07T10:14:39;6.10;69.20
27114;DHT22;14648;49.730;8.614;2022-12-07T10:20:32;6.20;69.20
27114;DHT22;14648;49.730;8.614;2022-12-07T10:23:14;6.20;69.10
27114;DHT22;14648;49.730;8.614;2022-12-07T10:25:44;6.20;69.20
27114;DHT22;14648;49.730;8.614;2022-12-07T10:28:16;6.30;70.10
27114;DHT22;14648;49.730;8.614;2022-12-07T10:31:15;6.30;69.30
27114;DHT22;14648;49.730;8.614;2022-12-07T10:33:56;6.40;69.20
27114;DHT22;14648;49.730;8.614;2022-12-07T10:36:37;6.30;69.20
27114;DHT22;14648;49.730;8.614;2022-12-07T10:39:19;6.40;69.20
27114;DHT22;14648;49.730;8.614;2022-12-07T10:41:54;6.40;69.20
27114;DHT22;14648;49.730;8.614;2022-12-07T10:44:26;6.30;69.20
27114;DHT22;14648;49.730;8.614;2022-12-07T10:47:34;6.30;69.10
27114;DHT22;14648;49.730;8.614;2022-12-07T11:05:11;6.50;69.20
27114;DHT22;14648;49.730;8.614;2022-12-07T11:22:09;6.70;69.30
27114;DHT22;14648;49.730;8.614;2022-12-07T11:24:57;6.70;69.20
27114;DHT22;14648;49.730;8.614;2022-12-07T11:27:44;6.70;69.20
27114;DHT22;14648;49.730;8.614;2022-12-07T11:30:20;6.70;69.20
27114;DHT22;14648;49.730;8.614;2022-12-07T11:33:15;6.70;69.20
27114;DHT22;14648;49.730;8.614;2022-12-07T11:36:02;6.80;69.30
27114;DHT22;14648;49.730;8.614;2022-12-07T11:38:48;6.80;69.20
27114;DHT22;14648;49.730;8.614;2022-12-07T11:41:22;6.80;69.20
27114;DHT22;14648;49.730;8.614;2022-12-07T11:43:54;6.80;69.20
27114;DHT22;14648;49.730;8.614;2022-12-07T11:46:27;6.90;69.40
27114;DHT22;14648;49.730;8.614;2022-12-07T11:50:07;6.90;69.40
27114;DHT22;14648;49.730;8.614;2022-12-07T11:55:40;7.00;69.30
27114;DHT22;14648;49.730;8.614;2022-12-07T12:04:06;7.00;69.20
27114;DHT22;14648;49.730;8.614;2022-12-07T12:06:40;7.10;69.30
27114;DHT22;14648;49.730;8.614;2022-12-07T12:09:16;7.20;69.20
27114;DHT22;14648;49.730;8.614;2022-12-07T12:14:54;7.10;69.10
27114;DHT22;14648;49.730;8.614;2022-12-07T12:20:35;7.10;69.20
27114;DHT22;14648;49.730;8.614;2022-12-07T12:23:18;7.20;69.00
27114;DHT22;14648;49.730;8.614;2022-12-07T12:25:49;7.10;68.90
27114;DHT22;14648;49.730;8.614;2022-12-07T12:28:54;7.10;69.00
27114;DHT22;14648;49.730;8.614;2022-12-07T12:34:00;7.00;68.90
27114;DHT22;14648;49.730;8.614;2022-12-07T12:36:45;7.00;69.00
27114;DHT22;14648;49.730;8.614;2022-12-07T12:39:13;7.00;69.00
27114;DHT22;14648;49.730;8.614;2022-12-07T12:50:28;7.00;68.80
27114;DHT22;14648;49.730;8.614;2022-12-07T12:53:19;7.10;68.70
27114;DHT22;14648;49.730;8.614;2022-12-07T12:56:11;7.10;68.70
27114;DHT22;14648;49.730;8.614;2022-12-07T12:58:48;7.10;68.60
27114;DHT22;14648;49.730;8.614;2022-12-07T13:04:17;7.10;68.50
27114;DHT22;14648;49.730;8.614;2022-12-07T13:06:48;7.20;68.40
27114;DHT22;14648;49.730;8.614;2022-12-07T13:09:23;7.20;68.30
27114;DHT22;14648;49.730;8.614;2022-12-07T13:11:58;7.20;68.00
27114;DHT22;14648;49.730;8.614;2022-12-07T13:14:52;7.20;67.90
27114;DHT22;14648;49.730;8.614;2022-12-07T13:20:02;7.30;67.80
27114;DHT22;14648;49.730;8.614;2022-12-07T13:25:11;7.20;67.40
27114;DHT22;14648;49.730;8.614;2022-12-07T13:27:55;7.20;67.20
27114;DHT22;14648;49.730;8.614;2022-12-07T13:30:24;7.20;67.20
27114;DHT22;14648;49.730;8.614;2022-12-07T13:32:54;7.20;67.10
27114;DHT22;14648;49.730;8.614;2022-12-07T13:35:29;7.20;66.90
27114;DHT22;14648;49.730;8.614;2022-12-07T13:38:05;7.20;66.90
27114;DHT22;14648;49.730;8.614;2022-12-07T13:40:38;7.20;66.80
27114;DHT22;14648;49.730;8.614;2022-12-07T13:43:13;7.20;66.70
27114;DHT22;14648;49.730;8.614;2022-12-07T13:45:41;7.20;66.70
27114;DHT22;14648;49.730;8.614;2022-12-07T13:48:24;7.20;66.60
27114;DHT22;14648;49.730;8.614;2022-12-07T13:50:54;7.20;66.50
27114;DHT22;14648;49.730;8.614;2022-12-07T13:53:21;7.10;66.50
27114;DHT22;14648;49.730;8.614;2022-12-07T13:55:47;7.10;66.50
27114;DHT22;14648;49.730;8.614;2022-12-07T13:58:13;7.10;66.40
27114;DHT22;14648;49.730;8.614;2022-12-07T14:00:40;7.10;66.40
27114;DHT22;14648;49.730;8.614;2022-12-07T14:05:40;7.10;66.20
27114;DHT22;14648;49.730;8.614;2022-12-07T14:10:55;7.10;66.30
27114;DHT22;14648;49.730;8.614;2022-12-07T14:13:44;7.20;66.30
27114;DHT22;14648;49.730;8.614;2022-12-07T14:16:24;7.30;66.30
27114;DHT22;14648;49.730;8.614;2022-12-07T14:18:57;7.50;66.30
27114;DHT22;14648;49.730;8.614;2022-12-07T14:21:29;7.60;66.10
27114;DHT22;14648;49.730;8.614;2022-12-07T14:24:17;7.60;66.00
27114;DHT22;14648;49.730;8.614;2022-12-07T14:26:46;7.70;65.80
27114;DHT22;14648;49.730;8.614;2022-12-07T14:31:51;7.70;65.80
27114;DHT22;14648;49.730;8.614;2022-12-07T14:34:20;7.70;65.90
27114;DHT22;14648;49.730;8.614;2022-12-07T14:36:46;7.70;65.80
27114;DHT22;14648;49.730;8.614;2022-12-07T14:39:12;7.60;65.70
27114;DHT22;14648;49.730;8.614;2022-12-07T14:41:38;7.60;65.60
27114;DHT22;14648;49.730;8.614;2022-12-07T14:44:16;7.50;65.60
27114;DHT22;14648;49.730;8.614;2022-12-07T14:46:43;7.50;65.60
27114;DHT22;14648;49.730;8.614;2022-12-07T14:49:09;7.50;65.50
27114;DHT22;14648;49.730;8.614;2022-12-07T14:51:36;7.50;65.40
27114;DHT22;14648;49.730;8.614;2022-12-07T14:54:05;7.40;65.20
27114;DHT22;14648;49.730;8.614;2022-12-07T14:56:31;7.40;65.30
27114;DHT22;14648;49.730;8.614;2022-12-07T14:58:56;7.30;65.30
27114;DHT22;14648;49.730;8.614;2022-12-07T15:01:22;7.30;65.30
27114;DHT22;14648;49.730;8.614;2022-12-07T15:03:48;7.30;65.20
27114;DHT22;14648;49.730;8.614;2022-12-07T15:06:17;7.20;65.10
27114;DHT22;14648;49.730;8.614;2022-12-07T15:08:43;7.10;65.00
27114;DHT22;14648;49.730;8.614;2022-12-07T15:11:16;7.10;65.10
27114;DHT22;14648;49.730;8.614;2022-12-07T15:13:42;7.10;65.10
27114;DHT22;14648;49.730;8.614;2022-12-07T15:16:27;7.10;65.10
27114;DHT22;14648;49.730;8.614;2022-12-07T15:18:53;7.10;65.00
27114;DHT22;14648;49.730;8.614;2022-12-07T15:21:18;7.10;65.00
27114;DHT22;14648;49.730;8.614;2022-12-07T15:23:46;7.00;64.80
27114;DHT22;14648;49.730;8.614;2022-12-07T15:26:12;7.00;64.80
27114;DHT22;14648;49.730;8.614;2022-12-07T15:28:39;7.00;64.80
27114;DHT22;14648;49.730;8.614;2022-12-07T15:31:16;7.00;64.80
27114;DHT22;14648;49.730;8.614;2022-12-07T15:33:43;7.00;64.70
27114;DHT22;14648;49.730;8.614;2022-12-07T15:36:20;6.90;64.70
27114;DHT22;14648;49.730;8.614;2022-12-07T15:38:47;6.90;64.70
27114;DHT22;14648;49.730;8.614;2022-12-07T15:41:13;6.90;64.70
27114;DHT22;14648;49.730;8.614;2022-12-07T15:43:39;6.80;64.60
27114;DHT22;14648;49.730;8.614;2022-12-07T15:46:23;6.80;64.70
27114;DHT22;14648;49.730;8.614;2022-12-07T15:48:48;6.80;64.70
27114;DHT22;14648;49.730;8.614;2022-12-07T15:51:14;6.80;64.60
27114;DHT22;14648;49.730;8.614;2022-12-07T15:53:40;6.80;64.60
27114;DHT22;14648;49.730;8.614;2022-12-07T15:56:07;6.80;64.70
27114;DHT22;14648;49.730;8.614;2022-12-07T15:58:34;6.70;64.60
27114;DHT22;14648;49.730;8.614;2022-12-07T16:00:59;6.70;64.60
27114;DHT22;14648;49.730;8.614;2022-12-07T16:03:27;6.80;64.60
27114;DHT22;14648;49.730;8.614;2022-12-07T16:05:53;6.70;64.60
27114;DHT22;14648;49.730;8.614;2022-12-07T16:08:19;6.70;65.40
27114;DHT22;14648;49.730;8.614;2022-12-07T16:10:44;6.80;64.60
27114;DHT22;14648;49.730;8.614;2022-12-07T16:13:11;6.70;64.60
27114;DHT22;14648;49.730;8.614;2022-12-07T16:15:39;6.70;64.60
27114;DHT22;14648;49.730;8.614;2022-12-07T16:18:08;6.70;64.60
27114;DHT22;14648;49.730;8.614;2022-12-07T16:20:34;6.70;64.50
27114;DHT22;14648;49.730;8.614;2022-12-07T16:23:00;6.70;64.60
27114;DHT22;14648;49.730;8.614;2022-12-07T16:25:26;6.70;64.50
27114;DHT22;14648;49.730;8.614;2022-12-07T16:27:52;6.70;64.50
27114;DHT22;14648;49.730;8.614;2022-12-07T16:30:18;6.70;64.50
27114;DHT22;14648;49.730;8.614;2022-12-07T16:32:44;6.70;64.50
27114;DHT22;14648;49.730;8.614;2022-12-07T16:35:10;6.70;64.50
27114;DHT22;14648;49.730;8.614;2022-12-07T16:37:37;6.70;64.40
27114;DHT22;14648;49.730;8.614;2022-12-07T16:40:03;6.70;64.40
27114;DHT22;14648;49.730;8.614;2022-12-07T16:42:33;6.70;64.40
27114;DHT22;14648;49.730;8.614;2022-12-07T16:45:00;6.70;64.30
27114;DHT22;14648;49.730;8.614;2022-12-07T16:47:26;6.70;64.30
27114;DHT22;14648;49.730;8.614;2022-12-07T16:49:51;6.70;64.30
27114;DHT22;14648;49.730;8.614;2022-12-07T16:52:18;6.70;64.30
27114;DHT22;14648;49.730;8.614;2022-12-07T16:54:44;6.70;64.30
27114;DHT22;14648;49.730;8.614;2022-12-07T16:57:10;6.70;64.30
27114;DHT22;14648;49.730;8.614;2022-12-07T16:59:36;6.70;64.30
27114;DHT22;14648;49.730;8.614;2022-12-07T17:02:02;6.60;64.10
27114;DHT22;14648;49.730;8.614;2022-12-07T17:04:29;6.60;64.10
27114;DHT22;14648;49.730;8.614;2022-12-07T17:06:54;6.60;64.20
27114;DHT22;14648;49.730;8.614;2022-12-07T17:09:20;6.60;64.20
27114;DHT22;14648;49.730;8.614;2022-12-07T17:11:46;6.60;64.20
27114;DHT22;14648;49.730;8.614;2022-12-07T17:14:11;6.60;64.20
27114;DHT22;14648;49.730;8.614;2022-12-07T17:16:56;6.60;64.20
27114;DHT22;14648;49.730;8.614;2022-12-07T17:19:21;6.60;64.30
27114;DHT22;14648;49.730;8.614;2022-12-07T17:21:47;6.50;64.30
27114;DHT22;14648;49.730;8.614;2022-12-07T17:24:15;6.50;64.40
27114;DHT22;14648;49.730;8.614;2022-12-07T17:26:44;6.50;64.30
27114;DHT22;14648;49.730;8.614;2022-12-07T17:29:13;6.50;64.40
27114;DHT22;14648;49.730;8.614;2022-12-07T17:31:40;6.50;64.40
27114;DHT22;14648;49.730;8.614;2022-12-07T17:34:13;6.40;64.30
27114;DHT22;14648;49.730;8.614;2022-12-07T17:36:40;6.40;64.40
27114;DHT22;14648;49.730;8.614;2022-12-07T17:39:07;6.50;64.50
27114;DHT22;14648;49.730;8.614;2022-12-07T17:41:35;6.50;64.40